sensor_id;sensor_type;location;lat;lon;timestamp;P1;durP1;ratioP1;P2;durP2;ratioP2
73264;SDS011;61493;51.008;14.088;2023-05-07T00:01:59;19.58;;;8.80;;
73264;SDS011;61493;51.008;14.088;2023-05-07T00:04:24;17.92;;;9.85;;
73264;SDS011;61493;51.008;14.088;2023-05-07T00:06:50;16.05;;;9.25;;
73264;SDS011;61493;51.008;14.088;2023-05-07T00:09:16;20.73;;;9.90;;
73264;SDS011;61493;51.008;14.088;2023-05-07T00:11:41;17.02;;;9.23;;
73264;SDS011;61493;51.008;14.088;2023-05-07T00:14:06;17.23;;;8.75;;
73264;SDS011;61493;51.008;14.088;2023-05-07T00:16:31;17.60;;;10.05;;
73264;SDS011;61493;51.008;14.088;2023-05-07T00:18:57;20.40;;;10.54;;
73264;SDS011;61493;51.008;14.088;2023-05-07T00:21:22;17.98;;;8.25;;
73264;SDS011;61493;51.008;14.088;2023-05-07T00:23:47;19.40;;;10.65;;
73264;SDS011;61493;51.008;14.088;2023-05-07T00:26:12;18.62;;;9.22;;
73264;SDS011;61493;51.008;14.088;2023-05-07T00:28:38;20.95;;;10.45;;
73264;SDS011;61493;51.008;14.088;2023-05-07T00:31:03;26.05;;;11.68;;
73264;SDS011;61493;51.008;14.088;2023-05-07T00:33:28;22.17;;;10.27;;
73264;SDS011;61493;51.008;14.088;2023-05-07T00:35:53;20.98;;;10.05;;
73264;SDS011;61493;51.008;14.088;2023-05-07T00:38:21;19.80;;;11.07;;
73264;SDS011;61493;51.008;14.088;2023-05-07T00:40:46;20.83;;;10.70;;
73264;SDS011;61493;51.008;14.088;2023-05-07T00:43:12;23.33;;;10.80;;
73264;SDS011;61493;51.008;14.088;2023-05-07T00:45:37;21.88;;;11.95;;
73264;SDS011;61493;51.008;14.088;2023-05-07T00:48:03;24.95;;;12.95;;
73264;SDS011;61493;51.008;14.088;2023-05-07T00:50:28;20.70;;;10.70;;
73264;SDS011;61493;51.008;14.088;2023-05-07T00:52:54;22.52;;;11.02;;
73264;SDS011;61493;51.008;14.088;2023-05-07T00:57:44;21.05;;;9.88;;
73264;SDS011;61493;51.008;14.088;2023-05-07T01:00:10;26.65;;;11.65;;
73264;SDS011;61493;51.008;14.088;2023-05-07T01:02:36;21.23;;;11.57;;
73264;SDS011;61493;51.008;14.088;2023-05-07T01:05:02;25.30;;;10.88;;
73264;SDS011;61493;51.008;14.088;2023-05-07T01:07:29;21.17;;;10.90;;
73264;SDS011;61493;51.008;14.088;2023-05-07T01:09:54;19.02;;;9.98;;
73264;SDS011;61493;51.008;14.088;2023-05-07T01:12:19;22.00;;;11.40;;
73264;SDS011;61493;51.008;14.088;2023-05-07T01:14:45;20.65;;;11.18;;
73264;SDS011;61493;51.008;14.088;2023-05-07T01:17:10;18.27;;;11.70;;
73264;SDS011;61493;51.008;14.088;2023-05-07T01:19:35;19.80;;;10.90;;
73264;SDS011;61493;51.008;14.088;2023-05-07T01:22:01;17.05;;;11.07;;
73264;SDS011;61493;51.008;14.088;2023-05-07T01:24:28;21.58;;;12.38;;
73264;SDS011;61493;51.008;14.088;2023-05-07T01:26:54;20.98;;;11.65;;
73264;SDS011;61493;51.008;14.088;2023-05-07T01:29:29;20.52;;;11.57;;
73264;SDS011;61493;51.008;14.088;2023-05-07T01:31:58;21.88;;;11.40;;
73264;SDS011;61493;51.008;14.088;2023-05-07T01:34:24;21.27;;;11.75;;
73264;SDS011;61493;51.008;14.088;2023-05-07T01:36:50;21.55;;;11.52;;
73264;SDS011;61493;51.008;14.088;2023-05-07T01:39:16;22.67;;;12.20;;
73264;SDS011;61493;51.008;14.088;2023-05-07T01:41:42;21.77;;;11.43;;
73264;SDS011;61493;51.008;14.088;2023-05-07T01:44:08;22.80;;;12.27;;
73264;SDS011;61493;51.008;14.088;2023-05-07T01:46:33;21.48;;;12.05;;
73264;SDS011;61493;51.008;14.088;2023-05-07T01:48:59;23.42;;;13.43;;
73264;SDS011;61493;51.008;14.088;2023-05-07T01:51:24;17.45;;;10.80;;
73264;SDS011;61493;51.008;14.088;2023-05-07T01:53:51;22.00;;;11.93;;
73264;SDS011;61493;51.008;14.088;2023-05-07T01:56:20;24.48;;;11.60;;
73264;SDS011;61493;51.008;14.088;2023-05-07T01:58:45;21.10;;;11.63;;
73264;SDS011;61493;51.008;14.088;2023-05-07T02:01:12;20.00;;;10.85;;
73264;SDS011;61493;51.008;14.088;2023-05-07T02:03:37;17.35;;;9.75;;
73264;SDS011;61493;51.008;14.088;2023-05-07T02:06:02;18.16;;;9.34;;
73264;SDS011;61493;51.008;14.088;2023-05-07T02:08:27;18.02;;;9.48;;
73264;SDS011;61493;51.008;14.088;2023-05-07T02:10:52;15.62;;;8.86;;
73264;SDS011;61493;51.008;14.088;2023-05-07T02:13:18;18.38;;;8.32;;
73264;SDS011;61493;51.008;14.088;2023-05-07T02:15:44;13.23;;;6.95;;
73264;SDS011;61493;51.008;14.088;2023-05-07T02:18:14;14.82;;;7.78;;
73264;SDS011;61493;51.008;14.088;2023-05-07T02:20:39;11.14;;;6.36;;
73264;SDS011;61493;51.008;14.088;2023-05-07T02:23:04;11.63;;;6.75;;
73264;SDS011;61493;51.008;14.088;2023-05-07T02:25:29;10.20;;;5.43;;
73264;SDS011;61493;51.008;14.088;2023-05-07T02:27:55;10.70;;;6.28;;
73264;SDS011;61493;51.008;14.088;2023-05-07T02:30:20;11.50;;;6.70;;
73264;SDS011;61493;51.008;14.088;2023-05-07T02:32:46;8.82;;;5.32;;
73264;SDS011;61493;51.008;14.088;2023-05-07T02:35:14;9.05;;;5.95;;
73264;SDS011;61493;51.008;14.088;2023-05-07T02:37:39;11.00;;;6.07;;
73264;SDS011;61493;51.008;14.088;2023-05-07T02:40:05;12.07;;;6.00;;
73264;SDS011;61493;51.008;14.088;2023-05-07T02:42:30;9.18;;;4.93;;
73264;SDS011;61493;51.008;14.088;2023-05-07T02:44:56;9.13;;;5.32;;
73264;SDS011;61493;51.008;14.088;2023-05-07T02:47:21;8.27;;;5.55;;
73264;SDS011;61493;51.008;14.088;2023-05-07T02:49:46;8.82;;;5.38;;
73264;SDS011;61493;51.008;14.088;2023-05-07T02:52:11;10.80;;;5.93;;
73264;SDS011;61493;51.008;14.088;2023-05-07T02:54:36;12.27;;;6.55;;
73264;SDS011;61493;51.008;14.088;2023-05-07T02:57:01;13.10;;;7.47;;
73264;SDS011;61493;51.008;14.088;2023-05-07T02:59:28;15.23;;;7.45;;
73264;SDS011;61493;51.008;14.088;2023-05-07T03:01:53;20.73;;;9.15;;
73264;SDS011;61493;51.008;14.088;2023-05-07T03:04:18;21.02;;;10.32;;
73264;SDS011;61493;51.008;14.088;2023-05-07T03:06:43;20.98;;;9.86;;
73264;SDS011;61493;51.008;14.088;2023-05-07T03:09:08;17.13;;;9.07;;
73264;SDS011;61493;51.008;14.088;2023-05-07T03:11:33;18.52;;;9.00;;
73264;SDS011;61493;51.008;14.088;2023-05-07T03:14:00;19.35;;;10.27;;
73264;SDS011;61493;51.008;14.088;2023-05-07T03:16:25;20.48;;;9.00;;
73264;SDS011;61493;51.008;14.088;2023-05-07T03:18:56;22.65;;;9.25;;
73264;SDS011;61493;51.008;14.088;2023-05-07T03:21:21;18.00;;;8.43;;
73264;SDS011;61493;51.008;14.088;2023-05-07T03:23:46;18.02;;;8.50;;
73264;SDS011;61493;51.008;14.088;2023-05-07T03:26:11;23.46;;;10.84;;
73264;SDS011;61493;51.008;14.088;2023-05-07T03:28:37;18.45;;;9.50;;
73264;SDS011;61493;51.008;14.088;2023-05-07T03:31:02;21.65;;;11.38;;
73264;SDS011;61493;51.008;14.088;2023-05-07T03:33:27;23.25;;;10.05;;
73264;SDS011;61493;51.008;14.088;2023-05-07T03:35:52;20.65;;;10.15;;
73264;SDS011;61493;51.008;14.088;2023-05-07T03:38:18;21.35;;;9.80;;
73264;SDS011;61493;51.008;14.088;2023-05-07T03:40:43;18.52;;;10.02;;
73264;SDS011;61493;51.008;14.088;2023-05-07T03:43:08;19.27;;;8.98;;
73264;SDS011;61493;51.008;14.088;2023-05-07T03:45:33;21.13;;;10.90;;
73264;SDS011;61493;51.008;14.088;2023-05-07T03:47:58;19.55;;;8.95;;
73264;SDS011;61493;51.008;14.088;2023-05-07T03:50:23;19.02;;;9.52;;
73264;SDS011;61493;51.008;14.088;2023-05-07T03:52:49;18.55;;;10.45;;
73264;SDS011;61493;51.008;14.088;2023-05-07T03:55:14;19.10;;;8.75;;
73264;SDS011;61493;51.008;14.088;2023-05-07T03:57:39;16.33;;;9.27;;
73264;SDS011;61493;51.008;14.088;2023-05-07T04:00:04;19.90;;;8.44;;
73264;SDS011;61493;51.008;14.088;2023-05-07T04:02:31;21.38;;;9.43;;
73264;SDS011;61493;51.008;14.088;2023-05-07T04:04:57;22.05;;;9.30;;
73264;SDS011;61493;51.008;14.088;2023-05-07T04:07:22;18.08;;;8.64;;
73264;SDS011;61493;51.008;14.088;2023-05-07T04:09:47;17.40;;;8.93;;
73264;SDS011;61493;51.008;14.088;2023-05-07T04:12:13;26.20;;;9.23;;
73264;SDS011;61493;51.008;14.088;2023-05-07T04:14:38;14.85;;;8.27;;
73264;SDS011;61493;51.008;14.088;2023-05-07T04:17:03;15.30;;;8.25;;
73264;SDS011;61493;51.008;14.088;2023-05-07T04:19:28;15.73;;;8.23;;
73264;SDS011;61493;51.008;14.088;2023-05-07T04:21:53;19.75;;;8.43;;
73264;SDS011;61493;51.008;14.088;2023-05-07T04:24:18;16.13;;;7.32;;
73264;SDS011;61493;51.008;14.088;2023-05-07T04:26:47;14.38;;;7.78;;
73264;SDS011;61493;51.008;14.088;2023-05-07T04:29:12;19.13;;;9.00;;
73264;SDS011;61493;51.008;14.088;2023-05-07T04:31:37;18.60;;;9.68;;
73264;SDS011;61493;51.008;14.088;2023-05-07T04:34:03;14.63;;;7.75;;
73264;SDS011;61493;51.008;14.088;2023-05-07T04:36:28;15.48;;;8.90;;
73264;SDS011;61493;51.008;14.088;2023-05-07T04:38:54;15.40;;;8.75;;
73264;SDS011;61493;51.008;14.088;2023-05-07T04:41:19;14.45;;;7.85;;
73264;SDS011;61493;51.008;14.088;2023-05-07T04:43:44;13.98;;;7.28;;
73264;SDS011;61493;51.008;14.088;2023-05-07T04:46:09;12.65;;;5.72;;
73264;SDS011;61493;51.008;14.088;2023-05-07T04:48:35;11.80;;;6.28;;
73264;SDS011;61493;51.008;14.088;2023-05-07T04:51:00;11.27;;;7.05;;
73264;SDS011;61493;51.008;14.088;2023-05-07T04:53:25;11.10;;;6.18;;
73264;SDS011;61493;51.008;14.088;2023-05-07T04:55:54;10.52;;;6.15;;
73264;SDS011;61493;51.008;14.088;2023-05-07T04:58:20;11.98;;;5.68;;
73264;SDS011;61493;51.008;14.088;2023-05-07T05:00:45;15.70;;;6.93;;
73264;SDS011;61493;51.008;14.088;2023-05-07T05:05:39;12.88;;;6.10;;
73264;SDS011;61493;51.008;14.088;2023-05-07T05:08:04;11.15;;;6.38;;
73264;SDS011;61493;51.008;14.088;2023-05-07T05:10:29;10.95;;;5.35;;
73264;SDS011;61493;51.008;14.088;2023-05-07T05:12:54;12.26;;;5.66;;
73264;SDS011;61493;51.008;14.088;2023-05-07T05:15:19;9.85;;;6.22;;
73264;SDS011;61493;51.008;14.088;2023-05-07T05:17:45;10.30;;;6.68;;
73264;SDS011;61493;51.008;14.088;2023-05-07T05:20:10;12.57;;;6.13;;
73264;SDS011;61493;51.008;14.088;2023-05-07T05:22:36;12.63;;;6.45;;
73264;SDS011;61493;51.008;14.088;2023-05-07T05:25:01;10.27;;;5.90;;
73264;SDS011;61493;51.008;14.088;2023-05-07T05:27:27;13.35;;;6.97;;
73264;SDS011;61493;51.008;14.088;2023-05-07T05:29:52;13.22;;;8.08;;
73264;SDS011;61493;51.008;14.088;2023-05-07T05:32:17;16.42;;;9.80;;
73264;SDS011;61493;51.008;14.088;2023-05-07T05:34:42;14.10;;;9.12;;
73264;SDS011;61493;51.008;14.088;2023-05-07T05:37:07;11.40;;;7.00;;
73264;SDS011;61493;51.008;14.088;2023-05-07T05:39:32;11.90;;;6.47;;
73264;SDS011;61493;51.008;14.088;2023-05-07T05:41:58;10.68;;;7.00;;
73264;SDS011;61493;51.008;14.088;2023-05-07T05:44:23;13.64;;;7.06;;
73264;SDS011;61493;51.008;14.088;2023-05-07T05:46:48;10.93;;;6.65;;
73264;SDS011;61493;51.008;14.088;2023-05-07T05:49:14;10.75;;;6.10;;
73264;SDS011;61493;51.008;14.088;2023-05-07T05:51:40;10.30;;;6.30;;
73264;SDS011;61493;51.008;14.088;2023-05-07T05:54:05;8.20;;;5.38;;
73264;SDS011;61493;51.008;14.088;2023-05-07T05:56:30;9.63;;;5.57;;
73264;SDS011;61493;51.008;14.088;2023-05-07T05:58:55;10.60;;;6.15;;
73264;SDS011;61493;51.008;14.088;2023-05-07T06:01:20;9.40;;;4.78;;
73264;SDS011;61493;51.008;14.088;2023-05-07T06:03:46;11.07;;;5.82;;
73264;SDS011;61493;51.008;14.088;2023-05-07T06:06:11;8.68;;;5.38;;
73264;SDS011;61493;51.008;14.088;2023-05-07T06:08:36;9.55;;;5.20;;
73264;SDS011;61493;51.008;14.088;2023-05-07T06:11:01;10.35;;;5.55;;
73264;SDS011;61493;51.008;14.088;2023-05-07T06:15:54;10.43;;;5.05;;
73264;SDS011;61493;51.008;14.088;2023-05-07T06:18:20;7.84;;;4.76;;
73264;SDS011;61493;51.008;14.088;2023-05-07T06:20:45;10.10;;;5.88;;
73264;SDS011;61493;51.008;14.088;2023-05-07T06:23:10;12.25;;;6.47;;
73264;SDS011;61493;51.008;14.088;2023-05-07T06:25:35;12.25;;;6.35;;
73264;SDS011;61493;51.008;14.088;2023-05-07T06:28:00;12.10;;;6.65;;
73264;SDS011;61493;51.008;14.088;2023-05-07T06:30:26;8.86;;;5.42;;
73264;SDS011;61493;51.008;14.088;2023-05-07T06:32:51;12.07;;;6.93;;
73264;SDS011;61493;51.008;14.088;2023-05-07T06:35:16;13.50;;;6.68;;
73264;SDS011;61493;51.008;14.088;2023-05-07T06:37:42;8.80;;;5.75;;
73264;SDS011;61493;51.008;14.088;2023-05-07T06:40:08;9.65;;;6.20;;
73264;SDS011;61493;51.008;14.088;2023-05-07T06:42:33;13.70;;;6.70;;
73264;SDS011;61493;51.008;14.088;2023-05-07T06:44:59;9.38;;;6.18;;
73264;SDS011;61493;51.008;14.088;2023-05-07T06:47:25;10.77;;;6.47;;
73264;SDS011;61493;51.008;14.088;2023-05-07T06:49:50;11.45;;;6.28;;
73264;SDS011;61493;51.008;14.088;2023-05-07T06:52:16;9.98;;;5.38;;
73264;SDS011;61493;51.008;14.088;2023-05-07T06:54:41;9.02;;;4.97;;
73264;SDS011;61493;51.008;14.088;2023-05-07T06:57:06;7.97;;;5.00;;
73264;SDS011;61493;51.008;14.088;2023-05-07T06:59:32;7.38;;;4.70;;
73264;SDS011;61493;51.008;14.088;2023-05-07T07:01:57;7.70;;;4.32;;
73264;SDS011;61493;51.008;14.088;2023-05-07T07:04:22;7.90;;;4.72;;
73264;SDS011;61493;51.008;14.088;2023-05-07T07:06:48;6.40;;;3.88;;
73264;SDS011;61493;51.008;14.088;2023-05-07T07:09:14;7.53;;;3.95;;
73264;SDS011;61493;51.008;14.088;2023-05-07T07:11:39;6.80;;;4.00;;
73264;SDS011;61493;51.008;14.088;2023-05-07T07:14:04;7.60;;;4.82;;
73264;SDS011;61493;51.008;14.088;2023-05-07T07:16:30;6.95;;;4.10;;
73264;SDS011;61493;51.008;14.088;2023-05-07T07:18:55;6.88;;;4.22;;
73264;SDS011;61493;51.008;14.088;2023-05-07T07:21:20;6.22;;;4.25;;
73264;SDS011;61493;51.008;14.088;2023-05-07T07:23:45;6.24;;;4.02;;
73264;SDS011;61493;51.008;14.088;2023-05-07T07:26:11;6.65;;;3.85;;
73264;SDS011;61493;51.008;14.088;2023-05-07T07:28:41;8.25;;;4.38;;
73264;SDS011;61493;51.008;14.088;2023-05-07T07:31:06;5.88;;;3.63;;
73264;SDS011;61493;51.008;14.088;2023-05-07T07:33:34;5.50;;;3.85;;
73264;SDS011;61493;51.008;14.088;2023-05-07T07:35:59;5.88;;;4.22;;
73264;SDS011;61493;51.008;14.088;2023-05-07T07:38:24;5.18;;;3.75;;
73264;SDS011;61493;51.008;14.088;2023-05-07T07:40:50;7.22;;;4.88;;
73264;SDS011;61493;51.008;14.088;2023-05-07T07:43:15;6.15;;;4.32;;
73264;SDS011;61493;51.008;14.088;2023-05-07T07:45:40;5.80;;;3.35;;
73264;SDS011;61493;51.008;14.088;2023-05-07T07:48:06;6.70;;;4.75;;
73264;SDS011;61493;51.008;14.088;2023-05-07T07:50:31;6.53;;;4.75;;
73264;SDS011;61493;51.008;14.088;2023-05-07T07:52:56;6.70;;;4.63;;
73264;SDS011;61493;51.008;14.088;2023-05-07T07:55:22;6.95;;;4.85;;
73264;SDS011;61493;51.008;14.088;2023-05-07T07:57:48;6.70;;;4.70;;
73264;SDS011;61493;51.008;14.088;2023-05-07T08:00:13;7.78;;;4.72;;
73264;SDS011;61493;51.008;14.088;2023-05-07T08:02:39;7.03;;;4.55;;
73264;SDS011;61493;51.008;14.088;2023-05-07T08:05:04;9.35;;;5.95;;
73264;SDS011;61493;51.008;14.088;2023-05-07T08:07:29;8.32;;;4.72;;
73264;SDS011;61493;51.008;14.088;2023-05-07T08:09:54;6.20;;;4.55;;
73264;SDS011;61493;51.008;14.088;2023-05-07T08:12:19;7.68;;;4.97;;
73264;SDS011;61493;51.008;14.088;2023-05-07T08:14:45;8.55;;;5.60;;
73264;SDS011;61493;51.008;14.088;2023-05-07T08:17:10;8.48;;;4.82;;
73264;SDS011;61493;51.008;14.088;2023-05-07T08:19:35;11.38;;;5.70;;
73264;SDS011;61493;51.008;14.088;2023-05-07T08:22:00;8.68;;;5.38;;
73264;SDS011;61493;51.008;14.088;2023-05-07T08:24:26;8.75;;;5.25;;
73264;SDS011;61493;51.008;14.088;2023-05-07T08:26:51;8.85;;;6.05;;
73264;SDS011;61493;51.008;14.088;2023-05-07T08:29:16;8.15;;;4.78;;
73264;SDS011;61493;51.008;14.088;2023-05-07T08:31:41;15.48;;;7.68;;
73264;SDS011;61493;51.008;14.088;2023-05-07T08:34:06;11.27;;;5.57;;
73264;SDS011;61493;51.008;14.088;2023-05-07T08:39:07;9.10;;;5.00;;
73264;SDS011;61493;51.008;14.088;2023-05-07T08:41:32;8.80;;;5.00;;
73264;SDS011;61493;51.008;14.088;2023-05-07T08:43:58;8.90;;;5.45;;
73264;SDS011;61493;51.008;14.088;2023-05-07T08:46:24;6.65;;;4.72;;
73264;SDS011;61493;51.008;14.088;2023-05-07T08:48:50;9.18;;;4.75;;
73264;SDS011;61493;51.008;14.088;2023-05-07T08:51:18;7.97;;;4.97;;
73264;SDS011;61493;51.008;14.088;2023-05-07T08:53:42;9.10;;;5.22;;
73264;SDS011;61493;51.008;14.088;2023-05-07T08:56:08;9.07;;;5.55;;
73264;SDS011;61493;51.008;14.088;2023-05-07T08:58:33;7.18;;;4.85;;
73264;SDS011;61493;51.008;14.088;2023-05-07T09:00:58;8.35;;;5.05;;
73264;SDS011;61493;51.008;14.088;2023-05-07T09:03:25;8.27;;;4.90;;
73264;SDS011;61493;51.008;14.088;2023-05-07T09:05:50;6.70;;;4.78;;
73264;SDS011;61493;51.008;14.088;2023-05-07T09:08:37;6.32;;;4.25;;
73264;SDS011;61493;51.008;14.088;2023-05-07T09:11:05;9.73;;;5.60;;
73264;SDS011;61493;51.008;14.088;2023-05-07T09:16:12;7.38;;;4.20;;
73264;SDS011;61493;51.008;14.088;2023-05-07T09:18:43;6.82;;;3.72;;
73264;SDS011;61493;51.008;14.088;2023-05-07T09:21:14;7.60;;;4.97;;
73264;SDS011;61493;51.008;14.088;2023-05-07T09:23:40;8.30;;;4.93;;
73264;SDS011;61493;51.008;14.088;2023-05-07T09:26:05;7.75;;;4.53;;
73264;SDS011;61493;51.008;14.088;2023-05-07T09:28:37;7.60;;;4.75;;
73264;SDS011;61493;51.008;14.088;2023-05-07T09:31:02;8.02;;;5.18;;
73264;SDS011;61493;51.008;14.088;2023-05-07T09:33:27;7.25;;;5.15;;
73264;SDS011;61493;51.008;14.088;2023-05-07T09:35:53;7.05;;;4.88;;
73264;SDS011;61493;51.008;14.088;2023-05-07T09:38:19;8.05;;;4.93;;
73264;SDS011;61493;51.008;14.088;2023-05-07T09:40:45;7.70;;;4.75;;
73264;SDS011;61493;51.008;14.088;2023-05-07T09:43:10;8.27;;;5.90;;
73264;SDS011;61493;51.008;14.088;2023-05-07T09:45:36;51.15;;;23.88;;
73264;SDS011;61493;51.008;14.088;2023-05-07T09:48:01;22.05;;;11.18;;
73264;SDS011;61493;51.008;14.088;2023-05-07T09:50:30;8.07;;;4.60;;
73264;SDS011;61493;51.008;14.088;2023-05-07T09:52:57;11.23;;;5.95;;
73264;SDS011;61493;51.008;14.088;2023-05-07T09:55:22;6.97;;;4.50;;
73264;SDS011;61493;51.008;14.088;2023-05-07T09:57:50;7.20;;;4.63;;
73264;SDS011;61493;51.008;14.088;2023-05-07T10:00:15;8.85;;;5.22;;
73264;SDS011;61493;51.008;14.088;2023-05-07T10:02:42;8.07;;;5.32;;
73264;SDS011;61493;51.008;14.088;2023-05-07T10:05:12;7.10;;;4.40;;
73264;SDS011;61493;51.008;14.088;2023-05-07T10:07:39;6.15;;;4.38;;
73264;SDS011;61493;51.008;14.088;2023-05-07T10:10:04;7.85;;;4.97;;
73264;SDS011;61493;51.008;14.088;2023-05-07T10:12:31;8.00;;;4.90;;
73264;SDS011;61493;51.008;14.088;2023-05-07T10:15:03;9.18;;;5.95;;
73264;SDS011;61493;51.008;14.088;2023-05-07T10:17:28;7.78;;;4.78;;
73264;SDS011;61493;51.008;14.088;2023-05-07T10:19:54;6.53;;;4.75;;
73264;SDS011;61493;51.008;14.088;2023-05-07T10:22:19;7.68;;;4.88;;
73264;SDS011;61493;51.008;14.088;2023-05-07T10:24:45;9.02;;;5.18;;
73264;SDS011;61493;51.008;14.088;2023-05-07T10:27:13;7.05;;;4.57;;
73264;SDS011;61493;51.008;14.088;2023-05-07T10:32:39;7.53;;;5.10;;
73264;SDS011;61493;51.008;14.088;2023-05-07T10:37:38;6.20;;;4.22;;
73264;SDS011;61493;51.008;14.088;2023-05-07T10:40:04;7.00;;;4.32;;
73264;SDS011;61493;51.008;14.088;2023-05-07T10:42:32;7.97;;;5.22;;
73264;SDS011;61493;51.008;14.088;2023-05-07T10:44:57;6.60;;;4.40;;
73264;SDS011;61493;51.008;14.088;2023-05-07T10:47:22;5.93;;;4.35;;
73264;SDS011;61493;51.008;14.088;2023-05-07T10:52:19;6.25;;;4.35;;
73264;SDS011;61493;51.008;14.088;2023-05-07T10:57:33;5.70;;;3.70;;
73264;SDS011;61493;51.008;14.088;2023-05-07T11:00:00;7.13;;;4.45;;
73264;SDS011;61493;51.008;14.088;2023-05-07T11:05:22;6.68;;;4.55;;
73264;SDS011;61493;51.008;14.088;2023-05-07T11:07:54;6.63;;;4.45;;
73264;SDS011;61493;51.008;14.088;2023-05-07T11:10:20;6.63;;;3.67;;
73264;SDS011;61493;51.008;14.088;2023-05-07T11:15:10;5.80;;;3.58;;
73264;SDS011;61493;51.008;14.088;2023-05-07T11:17:52;6.35;;;3.95;;
73264;SDS011;61493;51.008;14.088;2023-05-07T11:20:17;7.60;;;4.38;;
73264;SDS011;61493;51.008;14.088;2023-05-07T11:22:42;7.45;;;4.38;;
73264;SDS011;61493;51.008;14.088;2023-05-07T11:25:08;6.60;;;4.20;;
73264;SDS011;61493;51.008;14.088;2023-05-07T11:32:32;6.03;;;4.35;;
73264;SDS011;61493;51.008;14.088;2023-05-07T11:34:58;6.80;;;4.47;;
73264;SDS011;61493;51.008;14.088;2023-05-07T11:37:24;6.78;;;4.85;;
73264;SDS011;61493;51.008;14.088;2023-05-07T11:39:50;6.95;;;4.75;;
73264;SDS011;61493;51.008;14.088;2023-05-07T11:42:29;7.05;;;4.88;;
73264;SDS011;61493;51.008;14.088;2023-05-07T11:44:55;5.80;;;4.10;;
73264;SDS011;61493;51.008;14.088;2023-05-07T11:49:51;7.32;;;4.60;;
73264;SDS011;61493;51.008;14.088;2023-05-07T11:52:17;7.40;;;5.30;;
73264;SDS011;61493;51.008;14.088;2023-05-07T11:54:52;8.35;;;4.72;;
73264;SDS011;61493;51.008;14.088;2023-05-07T11:57:17;7.43;;;4.63;;
73264;SDS011;61493;51.008;14.088;2023-05-07T12:04:54;7.03;;;4.97;;
73264;SDS011;61493;51.008;14.088;2023-05-07T12:07:19;6.28;;;4.03;;
73264;SDS011;61493;51.008;14.088;2023-05-07T12:09:45;6.95;;;4.70;;
73264;SDS011;61493;51.008;14.088;2023-05-07T12:12:11;8.43;;;5.65;;
73264;SDS011;61493;51.008;14.088;2023-05-07T12:14:40;6.38;;;4.18;;
73264;SDS011;61493;51.008;14.088;2023-05-07T12:17:06;6.20;;;3.70;;
73264;SDS011;61493;51.008;14.088;2023-05-07T12:19:32;8.05;;;4.65;;
73264;SDS011;61493;51.008;14.088;2023-05-07T12:21:58;7.22;;;4.68;;
73264;SDS011;61493;51.008;14.088;2023-05-07T12:24:23;7.28;;;4.63;;
73264;SDS011;61493;51.008;14.088;2023-05-07T12:26:48;7.88;;;4.50;;
73264;SDS011;61493;51.008;14.088;2023-05-07T12:29:14;7.47;;;4.70;;
73264;SDS011;61493;51.008;14.088;2023-05-07T12:31:42;6.68;;;4.72;;
73264;SDS011;61493;51.008;14.088;2023-05-07T12:39:18;6.40;;;4.82;;
73264;SDS011;61493;51.008;14.088;2023-05-07T12:41:56;6.70;;;4.10;;
73264;SDS011;61493;51.008;14.088;2023-05-07T12:44:22;9.07;;;5.40;;
73264;SDS011;61493;51.008;14.088;2023-05-07T12:46:47;6.35;;;4.05;;
73264;SDS011;61493;51.008;14.088;2023-05-07T12:49:12;5.72;;;3.90;;
73264;SDS011;61493;51.008;14.088;2023-05-07T12:54:04;7.97;;;4.72;;
73264;SDS011;61493;51.008;14.088;2023-05-07T12:56:35;6.45;;;3.58;;
73264;SDS011;61493;51.008;14.088;2023-05-07T12:59:00;5.90;;;3.60;;
73264;SDS011;61493;51.008;14.088;2023-05-07T13:01:28;6.53;;;4.35;;
73264;SDS011;61493;51.008;14.088;2023-05-07T13:03:54;14.90;;;8.73;;
73264;SDS011;61493;51.008;14.088;2023-05-07T13:06:19;6.28;;;4.50;;
73264;SDS011;61493;51.008;14.088;2023-05-07T13:13:57;6.00;;;4.15;;
73264;SDS011;61493;51.008;14.088;2023-05-07T13:16:22;5.45;;;3.90;;
73264;SDS011;61493;51.008;14.088;2023-05-07T13:18:47;7.30;;;5.20;;
73264;SDS011;61493;51.008;14.088;2023-05-07T13:21:12;6.00;;;4.03;;
73264;SDS011;61493;51.008;14.088;2023-05-07T13:23:38;5.80;;;3.30;;
73264;SDS011;61493;51.008;14.088;2023-05-07T13:26:03;6.00;;;3.70;;
73264;SDS011;61493;51.008;14.088;2023-05-07T13:28:31;5.95;;;3.95;;
73264;SDS011;61493;51.008;14.088;2023-05-07T13:30:56;6.90;;;4.03;;
73264;SDS011;61493;51.008;14.088;2023-05-07T13:33:22;4.47;;;3.03;;
73264;SDS011;61493;51.008;14.088;2023-05-07T13:35:47;4.85;;;3.03;;
73264;SDS011;61493;51.008;14.088;2023-05-07T13:38:12;5.60;;;3.22;;
73264;SDS011;61493;51.008;14.088;2023-05-07T13:40:37;4.25;;;3.03;;
73264;SDS011;61493;51.008;14.088;2023-05-07T13:43:02;4.03;;;2.67;;
73264;SDS011;61493;51.008;14.088;2023-05-07T13:48:03;2.72;;;2.22;;
73264;SDS011;61493;51.008;14.088;2023-05-07T13:50:28;4.53;;;2.95;;
73264;SDS011;61493;51.008;14.088;2023-05-07T13:52:54;4.60;;;2.80;;
73264;SDS011;61493;51.008;14.088;2023-05-07T13:55:20;5.63;;;2.75;;
73264;SDS011;61493;51.008;14.088;2023-05-07T13:57:46;4.13;;;2.72;;
73264;SDS011;61493;51.008;14.088;2023-05-07T14:00:11;4.15;;;3.17;;
73264;SDS011;61493;51.008;14.088;2023-05-07T14:05:06;4.15;;;2.63;;
73264;SDS011;61493;51.008;14.088;2023-05-07T14:07:31;4.50;;;2.95;;
73264;SDS011;61493;51.008;14.088;2023-05-07T14:09:57;5.75;;;3.42;;
73264;SDS011;61493;51.008;14.088;2023-05-07T14:12:22;4.75;;;3.35;;
73264;SDS011;61493;51.008;14.088;2023-05-07T14:14:47;3.92;;;2.58;;
73264;SDS011;61493;51.008;14.088;2023-05-07T14:17:14;3.97;;;2.85;;
73264;SDS011;61493;51.008;14.088;2023-05-07T14:24:50;3.83;;;2.70;;
73264;SDS011;61493;51.008;14.088;2023-05-07T14:27:15;4.63;;;3.25;;
73264;SDS011;61493;51.008;14.088;2023-05-07T14:29:40;4.43;;;3.45;;
73264;SDS011;61493;51.008;14.088;2023-05-07T14:32:05;5.72;;;4.15;;
73264;SDS011;61493;51.008;14.088;2023-05-07T14:34:31;3.70;;;3.27;;
73264;SDS011;61493;51.008;14.088;2023-05-07T14:36:56;5.35;;;3.35;;
73264;SDS011;61493;51.008;14.088;2023-05-07T14:39:21;6.05;;;4.20;;
73264;SDS011;61493;51.008;14.088;2023-05-07T14:41:46;5.50;;;3.55;;
73264;SDS011;61493;51.008;14.088;2023-05-07T14:44:12;6.43;;;3.78;;
73264;SDS011;61493;51.008;14.088;2023-05-07T14:46:37;6.88;;;3.70;;
73264;SDS011;61493;51.008;14.088;2023-05-07T14:49:02;9.20;;;3.77;;
73264;SDS011;61493;51.008;14.088;2023-05-07T14:51:31;7.13;;;4.25;;
73264;SDS011;61493;51.008;14.088;2023-05-07T15:04:16;6.63;;;4.03;;
73264;SDS011;61493;51.008;14.088;2023-05-07T15:06:41;6.00;;;4.05;;
73264;SDS011;61493;51.008;14.088;2023-05-07T15:09:09;5.85;;;4.20;;
73264;SDS011;61493;51.008;14.088;2023-05-07T15:11:34;5.35;;;3.63;;
73264;SDS011;61493;51.008;14.088;2023-05-07T15:14:00;5.63;;;3.88;;
73264;SDS011;61493;51.008;14.088;2023-05-07T15:16:25;4.20;;;3.30;;
73264;SDS011;61493;51.008;14.088;2023-05-07T15:18:50;8.07;;;4.03;;
73264;SDS011;61493;51.008;14.088;2023-05-07T15:21:15;7.13;;;4.63;;
73264;SDS011;61493;51.008;14.088;2023-05-07T15:23:41;4.78;;;3.25;;
73264;SDS011;61493;51.008;14.088;2023-05-07T15:26:06;5.57;;;3.67;;
73264;SDS011;61493;51.008;14.088;2023-05-07T15:28:33;5.60;;;3.53;;
73264;SDS011;61493;51.008;14.088;2023-05-07T15:30:58;5.68;;;4.03;;
73264;SDS011;61493;51.008;14.088;2023-05-07T15:38:33;6.60;;;4.75;;